Latest  Newer  Older  Last 2 hours animation  Current image  Latest image 
Rain/snow radar  Infrared sat images 
Real-time lightning map

All time is UTC (add 2 hours to UTC in wintertime, 3 hours to UTC in DST for Latvia local time)

2021/01/27 18:20 EVRA 271820Z 29005KT 250V340 9999 -SN BKN010 OVC015 01/M00 Q1004 R36/490393 NOSIG
2021/01/27 18:20 EVLA 271820Z AUTO 32005KT 9999 SCT022/// OVC025/// 01/M03 Q1007
2021/01/27 18:20 EVVA 271820Z AUTO 31009KT 9999 FEW012 OVC034 01/M00 Q1005 RERASN
2021/01/27 18:20 EYKA 271820Z 28008KT 240V300 9999 BKN026 OVC041 00/M02 Q1006 R08/490493
2021/01/27 18:20 EYPA 271820Z AUTO 32003KT 260V350 9999 OVC022/// 01/M03 Q1008
2021/01/27 18:20 EYSA 271820Z 28013KT 9999 SCT014 OVC028 M00/M02 Q1005 R14L/29//95 R14R/29//95 GRN TEMPO BKN025 BLU
2021/01/27 18:20 EYVI 271820Z 30011KT 7000 -SN OVC004 M00/M01 Q1004 R19/5/0393 NOSIG
2021/01/27 16:20 EEKA 271620Z 33012KT 5000 -SN BKN013 OVC025 M00/M01 Q1002
2021/01/27 18:20 EEKE 271820Z AUTO 30005KT 270V340 9999NDV -SN FEW009 OVC027 M00/M00 Q1004

2021/01/27 18:20 EETN 271820Z 29007KT 9000 OVC003 00/M01 Q1000 R08/690294 TEMPO 3000 SN
2021/01/27 18:20 EETU 271820Z AUTO 21003KT 4400 BR FEW010/// BKN015/// OVC048/// 00/M00 Q1000
   RIGA AIRPORT     EVRA               56 55N  023 58E   10   X     T          6 LV
   LIEPAJA INTL     EVLA        26406  56 31N  021 06E    4   X                8 LV
   VENTPILS         EVVA               57 21N  021 33E    6   X                8 LV
   KAUNAS           EYKA               54 54N  023 55E   77   X     T          6 LT
   PALANGA INTL     EYPA               55 55N  021 03E   10   X                6 LT
   SIAULIAI INTL    EYSA               55 54N  023 24E  135   X     T          6 LT
   VILNIUS INTL     EYVI        26730  54 38N  025 17E  197   X     T          6 LT
   KARDLA           EEKA        26116  58 59N  022 50E    4   X                8 EE
   KURESSAARE       EEKE               58 14N  022 31E    4   X                8 EE
   PARNU            EEPU               58 25N  024 28E   14   X                8 EE
   TALLINN          EETN        26038  59 24N  024 49E   40   X     T          8 EE
   TARTU            EETU               58 19N  026 41E   67   X                8 EE

cloud coverage image from sat24.com and METAR data from weather.noaa.gov